Lady Mary — WCY4834 — position and weather

sailwx.info

Track history (hours):
 
Tides and Currents Weather Stations Pressure Air Temp Water Temp Dewpoint Dewpoint Depression Visibility Wind Speed Wind Dir Waves Ship Positions

Lady Mary

Owner: BLACKMAN, JOHN H, SEATTLE, WA. More information available from US FCC via Universal Licensing System and Coast Guard Vessel Documentation Center.

Last reported at 2014-Dec-19 03:32 UTC. Time now 2014-Dec-19 03:51 UTC.
Position N 47°39' W 122°16'.

Length 26 m.

Type: Passenger vessel. MMSI: 367013060.

Date/timePositionNaut miles runAvg speedWind from/ knotsBaromVisibWave heightAir tempDewpointWater temp
2014-Dec-19 03:32N 47°39' W 122°16'3 2.9
2014-Dec-19 02:33N 47°40' W 122°13'0 0.0
2014-Dec-19 01:33N 47°40' W 122°13'0 0.0
2014-Dec-19 00:33N 47°40' W 122°13'0 0.0
2014-Dec-18 23:33N 47°40' W 122°13'0 0.0
2014-Dec-18 22:33N 47°40' W 122°13'0 0.0
2014-Dec-18 21:33N 47°40' W 122°13'0 0.0
2014-Dec-18 20:33N 47°40' W 122°13'0 0.0
2014-Dec-18 19:33N 47°40' W 122°13'0 0.0
2014-Dec-18 18:33N 47°40' W 122°13'0 0.0
2014-Dec-18 17:33N 47°40' W 122°13'0 0.0
2014-Dec-18 16:33N 47°40' W 122°13'0 0.0
2014-Dec-18 15:33N 47°40' W 122°13'0 0.0
2014-Dec-18 14:33N 47°40' W 122°13'0 0.0
2014-Dec-18 13:34N 47°40' W 122°13'0 0.0
2014-Dec-18 12:33N 47°40' W 122°13'0 0.0
2014-Dec-18 11:33N 47°40' W 122°13'0 0.0
2014-Dec-18 10:33N 47°40' W 122°13'0 0.0
2014-Dec-18 09:33N 47°40' W 122°13'0 0.0
2014-Dec-18 08:33N 47°40' W 122°13'0 0.0
2014-Dec-18 07:33N 47°40' W 122°13'0 0.0
2014-Dec-18 06:33N 47°40' W 122°13'1 1.0
2014-Dec-18 05:33N 47°39' W 122°12'4 3.8
2014-Dec-18 04:32N 47°39' W 122°18'2 1.7
2014-Dec-18 03:33N 47°39' W 122°21'6 5.6
2014-Dec-18 02:33N 47°39' W 122°12'0 0.0
2014-Dec-18 01:33N 47°39' W 122°12'0 0.0
2014-Dec-18 00:33N 47°39' W 122°12'1 1.0
2014-Dec-17 23:33N 47°40' W 122°13'0 0.0
2014-Dec-17 22:34N 47°40' W 122°13'0 0.0
2014-Dec-17 21:33N 47°40' W 122°13'0 0.0
2014-Dec-17 20:33N 47°40' W 122°13'0 0.0
2014-Dec-17 19:33N 47°40' W 122°13'0 0.0
2014-Dec-17 18:33N 47°40' W 122°13'0 0.0
2014-Dec-17 17:33N 47°40' W 122°13'0 0.0
2014-Dec-17 16:34N 47°40' W 122°13'0 0.0
2014-Dec-17 15:34N 47°40' W 122°13'0 0.0
2014-Dec-17 14:33N 47°40' W 122°13'0 0.0
2014-Dec-17 13:33N 47°40' W 122°13'0 0.0
2014-Dec-17 12:33N 47°40' W 122°13'0 0.0
2014-Dec-17 11:33N 47°40' W 122°13'0 0.0
2014-Dec-17 10:33N 47°40' W 122°13'0 0.0
2014-Dec-17 09:34N 47°40' W 122°13'0 0.0
2014-Dec-17 08:33N 47°40' W 122°13'0 0.0
2014-Dec-17 07:33N 47°40' W 122°13'0 0.0
2014-Dec-17 06:33N 47°40' W 122°13'0 0.0
2014-Dec-17 05:33N 47°40' W 122°13'0 0.0
2014-Dec-17 04:34N 47°40' W 122°13'0 0.0
2014-Dec-17 03:33N 47°40' W 122°13'0 0.0
2014-Dec-17 02:33N 47°40' W 122°13'0 0.0
2014-Dec-17 01:33N 47°40' W 122°13'0 0.0
2014-Dec-17 00:33N 47°40' W 122°13'0 0.0
2014-Dec-16 23:33N 47°40' W 122°13'0 0.0
2014-Dec-16 22:33N 47°40' W 122°13'0 0.0
2014-Dec-16 21:33N 47°40' W 122°13'0 0.0
2014-Dec-16 20:33N 47°40' W 122°13'0 0.0
2014-Dec-16 19:33N 47°40' W 122°13'0 0.0
2014-Dec-16 18:33N 47°40' W 122°13'0 0.0
2014-Dec-16 17:33N 47°40' W 122°13'0 0.0
2014-Dec-16 16:33N 47°40' W 122°13'0 0.0
2014-Dec-16 15:33N 47°40' W 122°13'0 0.0
2014-Dec-16 14:33N 47°40' W 122°13'0 0.0
2014-Dec-16 13:33N 47°40' W 122°13'0 0.0
2014-Dec-16 12:33N 47°40' W 122°13'0 0.0
2014-Dec-16 11:33N 47°40' W 122°13'0 0.0
2014-Dec-16 10:33N 47°40' W 122°13'0 0.0
2014-Dec-16 09:34N 47°40' W 122°13'0 0.0
2014-Dec-16 08:33N 47°40' W 122°13'0 0.0
2014-Dec-16 07:33N 47°40' W 122°13'0 0.0
2014-Dec-16 06:33N 47°40' W 122°13'0 0.0
2014-Dec-16 05:34N 47°40' W 122°13'0 0.0
2014-Dec-16 04:31N 47°40' W 122°13'0 0.0
2014-Dec-16 03:32N 47°40' W 122°13'0 0.0
2014-Dec-16 02:33N 47°40' W 122°13'0 0.0
2014-Dec-16 01:32N 47°40' W 122°13'0 0.0
2014-Dec-16 00:31N 47°40' W 122°13'0 0.0
2014-Dec-15 23:33N 47°40' W 122°13'0 0.0
2014-Dec-15 22:33N 47°40' W 122°13'0 0.0
2014-Dec-15 21:33N 47°40' W 122°13'0 0.0
2014-Dec-15 20:33N 47°40' W 122°13'0 0.0
2014-Dec-15 19:33N 47°40' W 122°13'0 0.0
2014-Dec-15 18:33N 47°40' W 122°13'0 0.0
2014-Dec-15 17:33N 47°40' W 122°13'0 0.0
2014-Dec-15 16:33N 47°40' W 122°13'0 0.0
2014-Dec-15 15:34N 47°40' W 122°13'0 0.0
2014-Dec-15 14:33N 47°40' W 122°13'0 0.0
2014-Dec-15 13:33N 47°40' W 122°13'0 0.0
2014-Dec-15 12:33N 47°40' W 122°13'0 0.0
2014-Dec-15 11:33N 47°40' W 122°13'0 0.0
2014-Dec-15 10:33N 47°40' W 122°13'0 0.0
2014-Dec-15 09:33N 47°40' W 122°13'0 0.0
2014-Dec-15 08:34N 47°40' W 122°13'0 0.0
2014-Dec-15 07:33N 47°40' W 122°13'0 0.0
2014-Dec-15 06:34N 47°40' W 122°13'0 0.0
2014-Dec-15 05:33N 47°40' W 122°13'0 0.0
2014-Dec-15 04:33N 47°40' W 122°13'0 0.0
2014-Dec-15 03:33N 47°40' W 122°13'0 0.0
2014-Dec-15 02:33N 47°40' W 122°13'0 0.0
2014-Dec-15 01:33N 47°40' W 122°13'0 0.0
2014-Dec-15 00:34N 47°40' W 122°13'0 0.0
2014-Dec-14 23:33N 47°40' W 122°13'0 0.0
2014-Dec-14 22:33N 47°40' W 122°13'0 0.0
2014-Dec-14 21:33N 47°40' W 122°13'0 0.0
2014-Dec-14 20:34N 47°40' W 122°13'0 0.0
2014-Dec-14 19:34N 47°40' W 122°13'0 0.0
2014-Dec-14 18:33N 47°40' W 122°13'0 0.0
2014-Dec-14 17:34N 47°40' W 122°13'0 0.0
2014-Dec-14 16:33N 47°40' W 122°13'0 0.0
2014-Dec-14 15:33N 47°40' W 122°13'0 0.0
2014-Dec-14 14:33N 47°40' W 122°13'0 0.0
2014-Dec-14 13:33N 47°40' W 122°13'0 0.0
2014-Dec-14 12:34N 47°40' W 122°13'0 0.0
2014-Dec-14 11:33N 47°40' W 122°13'0 0.0
2014-Dec-14 10:33N 47°40' W 122°13'0 0.0
2014-Dec-14 09:33N 47°40' W 122°13'4 3.4
2014-Dec-14 08:31N 47°39' W 122°17'1 0.3
2014-Dec-14 06:25N 47°39' W 122°18'4 4.6
2014-Dec-14 05:33N 47°37' W 122°13'5 4.8
2014-Dec-14 04:34N 47°38' W 122°20'1 0.7
2014-Dec-14 03:33N 47°38' W 122°20'0 0.0
2014-Dec-14 02:32N 47°38' W 122°20'2 1.8
2014-Dec-14 01:30N 47°39' W 122°18'4 4.4
2014-Dec-14 00:33N 47°36' W 122°13'5 4.4
2014-Dec-13 23:30N 47°39' W 122°19'1 1.5
2014-Dec-13 22:29N 47°38' W 122°20'0 0.0
2014-Dec-13 21:33N 47°38' W 122°20'4 4.3
2014-Dec-13 20:31N 47°40' W 122°14'1 1.5
2014-Dec-13 19:33N 47°40' W 122°13'0 0.0
2014-Dec-13 18:33N 47°40' W 122°13'0 0.0
2014-Dec-13 17:33N 47°40' W 122°13'0 0.0
2014-Dec-13 16:33N 47°40' W 122°13'0 0.0
2014-Dec-13 15:33N 47°40' W 122°13'0 0.0
2014-Dec-13 14:34N 47°40' W 122°13'0 0.0
2014-Dec-13 13:33N 47°40' W 122°13'0 0.0
2014-Dec-13 12:34N 47°40' W 122°13'0 0.0
2014-Dec-13 11:33N 47°40' W 122°13'0 0.0
2014-Dec-13 10:33N 47°40' W 122°13'0 0.0
2014-Dec-13 09:33N 47°40' W 122°13'0 0.0
2014-Dec-13 08:33N 47°40' W 122°13'4 3.9
2014-Dec-13 07:33N 47°39' W 122°18'2 1.9
2014-Dec-13 06:32N 47°38' W 122°20'2 1.6
2014-Dec-13 05:33N 47°39' W 122°21'4 3.8
2014-Dec-13 04:33N 47°37' W 122°17'3 2.5
2014-Dec-13 03:33N 47°38' W 122°20'1 0.5
2014-Dec-13 02:25N 47°38' W 122°20'0 0.0
2014-Dec-13 01:31N 47°38' W 122°20'6 4.0
2014-Dec-13 00:05N 47°40' W 122°13'4 7.6
2014-Dec-12 23:33N 47°39' W 122°18'2 1.7
2014-Dec-12 22:33N 47°38' W 122°20'5 4.6
2014-Dec-12 21:33N 47°39' W 122°14'2 1.5
2014-Dec-12 20:33N 47°40' W 122°13'0 0.0
2014-Dec-12 19:23N 47°40' W 122°13'0 0.0
2014-Dec-12 18:31N 47°40' W 122°13'0 0.0
2014-Dec-12 17:09N 47°40' W 122°13'0 0.0
2014-Dec-12 16:25N 47°40' W 122°13'0 0.0
2014-Dec-12 13:22N 47°40' W 122°13'0 0.0
2014-Dec-12 12:30N 47°40' W 122°13'0 0.0
2014-Dec-12 11:29N 47°40' W 122°13'0 0.0
2014-Dec-12 10:33N 47°40' W 122°13'0 0.0
2014-Dec-12 09:33N 47°40' W 122°13'0 0.0
2014-Dec-12 08:32N 47°40' W 122°13'0 0.0
2014-Dec-12 07:34N 47°40' W 122°13'0 0.0
2014-Dec-12 06:33N 47°40' W 122°13'0 0.0
2014-Dec-12 05:33N 47°40' W 122°13'0 0.0
2014-Dec-12 04:33N 47°40' W 122°13'0 0.0
2014-Dec-12 03:33N 47°40' W 122°13'0 0.0
2014-Dec-12 02:33N 47°40' W 122°13'0 0.0
2014-Dec-12 01:33N 47°40' W 122°13'0 0.0
2014-Dec-12 00:34N 47°40' W 122°13'0 0.0
2014-Dec-11 23:34N 47°40' W 122°13'0 0.0
2014-Dec-11 22:34N 47°40' W 122°13'0 0.0
2014-Dec-11 21:33N 47°40' W 122°13'0 0.0
2014-Dec-11 20:33N 47°40' W 122°13'0 0.0
2014-Dec-11 19:33N 47°40' W 122°13'0 0.0
2014-Dec-11 18:33N 47°40' W 122°13'0 0.0
2014-Dec-11 17:33N 47°40' W 122°13'0 0.0
2014-Dec-11 16:34N 47°40' W 122°13'0 0.0
2014-Dec-11 15:34N 47°40' W 122°13'0 0.0
2014-Dec-11 14:33N 47°40' W 122°13'0 0.0
2014-Dec-11 13:33N 47°40' W 122°13'0 0.0
2014-Dec-11 12:33N 47°40' W 122°13'0 0.0
2014-Dec-11 11:33N 47°40' W 122°13'0 0.0
2014-Dec-11 10:33N 47°40' W 122°13'0 0.0
2014-Dec-11 09:33N 47°40' W 122°13'0 0.0
2014-Dec-11 08:34N 47°40' W 122°13'0 0.0
2014-Dec-11 07:33N 47°40' W 122°13'0 0.0
2014-Dec-11 06:34N 47°40' W 122°13'0 0.0
2014-Dec-11 05:33N 47°40' W 122°13'0 0.0
2014-Dec-11 04:33N 47°40' W 122°13'0 0.0
2014-Dec-11 03:34N 47°40' W 122°13'0 0.0
2014-Dec-11 02:33N 47°40' W 122°13'0 0.0
2014-Dec-11 01:34N 47°40' W 122°13'0 0.0
2014-Dec-11 00:33N 47°40' W 122°13'0 0.0
2014-Dec-10 23:34N 47°40' W 122°13'0 0.0
2014-Dec-10 22:33N 47°40' W 122°13'0 0.0
2014-Dec-10 21:34N 47°40' W 122°13'0 0.0
2014-Dec-10 20:34N 47°40' W 122°13'0 0.0
2014-Dec-10 19:34N 47°40' W 122°13'0 0.0
2014-Dec-10 18:33N 47°40' W 122°13'0 0.0
2014-Dec-10 17:34N 47°40' W 122°13'0 0.0
2014-Dec-10 16:33N 47°40' W 122°13'0 0.0
2014-Dec-10 15:33N 47°40' W 122°13'0 0.0
2014-Dec-10 14:34N 47°40' W 122°13'0 0.0
2014-Dec-10 13:33N 47°40' W 122°13'0 0.0
2014-Dec-10 12:33N 47°40' W 122°13'0 0.0
2014-Dec-10 11:33N 47°40' W 122°13'0 0.0
2014-Dec-10 10:33N 47°40' W 122°13'0 0.0
2014-Dec-10 09:33N 47°40' W 122°13'0 0.0
2014-Dec-10 08:33N 47°40' W 122°13'0 0.0
2014-Dec-10 07:33N 47°40' W 122°13'0 0.0
2014-Dec-10 06:34N 47°40' W 122°13'0 0.0
2014-Dec-10 05:33N 47°40' W 122°13'0 0.0
2014-Dec-10 04:33N 47°40' W 122°13'0 0.0
2014-Dec-10 03:33N 47°40' W 122°13'0 0.0
2014-Dec-10 02:33N 47°40' W 122°13'0 0.0
2014-Dec-10 01:33N 47°40' W 122°13'0 0.0
2014-Dec-10 00:33N 47°40' W 122°13'0 0.0
2014-Dec-09 23:33N 47°40' W 122°13'0 0.0
2014-Dec-09 22:34N 47°40' W 122°13'0 0.0
2014-Dec-09 21:33N 47°40' W 122°13'0 0.0
2014-Dec-09 20:33N 47°40' W 122°13'0 0.0
2014-Dec-09 19:32N 47°40' W 122°13'0 0.0
2014-Dec-09 18:33N 47°40' W 122°13'0 0.0
2014-Dec-09 17:34N 47°40' W 122°13'0 0.0
2014-Dec-09 17:31N 47°40' W 122°13'0 0.0
2014-Dec-09 16:33N 47°40' W 122°13'0 0.0
2014-Dec-09 15:33N 47°40' W 122°13'0 0.0
2014-Dec-09 14:34N 47°40' W 122°13'0 0.0
2014-Dec-09 13:33N 47°40' W 122°13'0 0.0
2014-Dec-09 12:34N 47°40' W 122°13'0 0.0
2014-Dec-09 11:33N 47°40' W 122°13'0 0.0
2014-Dec-09 10:33N 47°40' W 122°13'0 0.0
2014-Dec-09 09:33N 47°40' W 122°13'0 0.0
2014-Dec-09 08:33N 47°40' W 122°13'0 0.0
2014-Dec-09 07:34N 47°40' W 122°13'0 0.0
2014-Dec-09 06:34N 47°40' W 122°13'0 0.0
2014-Dec-09 05:33N 47°40' W 122°13'0 0.0
2014-Dec-09 04:33N 47°40' W 122°13'0 0.0
2014-Dec-09 04:24N 47°40' W 122°13'0 0.0
2014-Dec-09 03:34N 47°40' W 122°13'  
Track history (hours):
 
Tides and Currents Weather Stations Pressure Air Temp Water Temp Dewpoint Dewpoint Depression Visibility Wind Speed Wind Dir Waves Ship Positions

Lady Mary

Owner: BLACKMAN, JOHN H, SEATTLE, WA. More information available from US FCC via Universal Licensing System and Coast Guard Vessel Documentation Center.

Last reported at 2014-Dec-19 03:32 UTC. Time now 2014-Dec-19 03:51 UTC.
Position N 47°39' W 122°16'.

Length 26 m.

Type: Passenger vessel. MMSI: 367013060.

Date/timePositionNaut miles runAvg speedWind from/ knotsBaromVisibWave heightAir tempDewpointWater temp
2014-Dec-19 03:32N 47°39' W 122°16'3 2.9
2014-Dec-19 02:33N 47°40' W 122°13'0 0.0
2014-Dec-19 01:33N 47°40' W 122°13'0 0.0
2014-Dec-19 00:33N 47°40' W 122°13'0 0.0
2014-Dec-18 23:33N 47°40' W 122°13'0 0.0
2014-Dec-18 22:33N 47°40' W 122°13'0 0.0
2014-Dec-18 21:33N 47°40' W 122°13'0 0.0
2014-Dec-18 20:33N 47°40' W 122°13'0 0.0
2014-Dec-18 19:33N 47°40' W 122°13'0 0.0
2014-Dec-18 18:33N 47°40' W 122°13'0 0.0
2014-Dec-18 17:33N 47°40' W 122°13'0 0.0
2014-Dec-18 16:33N 47°40' W 122°13'0 0.0
2014-Dec-18 15:33N 47°40' W 122°13'0 0.0
2014-Dec-18 14:33N 47°40' W 122°13'0 0.0
2014-Dec-18 13:34N 47°40' W 122°13'0 0.0
2014-Dec-18 12:33N 47°40' W 122°13'0 0.0
2014-Dec-18 11:33N 47°40' W 122°13'0 0.0
2014-Dec-18 10:33N 47°40' W 122°13'0 0.0
2014-Dec-18 09:33N 47°40' W 122°13'0 0.0
2014-Dec-18 08:33N 47°40' W 122°13'0 0.0
2014-Dec-18 07:33N 47°40' W 122°13'0 0.0
2014-Dec-18 06:33N 47°40' W 122°13'1 1.0
2014-Dec-18 05:33N 47°39' W 122°12'4 3.8
2014-Dec-18 04:32N 47°39' W 122°18'2 1.7
2014-Dec-18 03:33N 47°39' W 122°21'6 5.6
2014-Dec-18 02:33N 47°39' W 122°12'0 0.0
2014-Dec-18 01:33N 47°39' W 122°12'0 0.0
2014-Dec-18 00:33N 47°39' W 122°12'1 1.0
2014-Dec-17 23:33N 47°40' W 122°13'0 0.0
2014-Dec-17 22:34N 47°40' W 122°13'0 0.0
2014-Dec-17 21:33N 47°40' W 122°13'0 0.0
2014-Dec-17 20:33N 47°40' W 122°13'0 0.0
2014-Dec-17 19:33N 47°40' W 122°13'0 0.0
2014-Dec-17 18:33N 47°40' W 122°13'0 0.0
2014-Dec-17 17:33N 47°40' W 122°13'0 0.0
2014-Dec-17 16:34N 47°40' W 122°13'0 0.0
2014-Dec-17 15:34N 47°40' W 122°13'0 0.0
2014-Dec-17 14:33N 47°40' W 122°13'0 0.0
2014-Dec-17 13:33N 47°40' W 122°13'0 0.0
2014-Dec-17 12:33N 47°40' W 122°13'0 0.0
2014-Dec-17 11:33N 47°40' W 122°13'0 0.0
2014-Dec-17 10:33N 47°40' W 122°13'0 0.0
2014-Dec-17 09:34N 47°40' W 122°13'0 0.0
2014-Dec-17 08:33N 47°40' W 122°13'0 0.0
2014-Dec-17 07:33N 47°40' W 122°13'0 0.0
2014-Dec-17 06:33N 47°40' W 122°13'0 0.0
2014-Dec-17 05:33N 47°40' W 122°13'0 0.0
2014-Dec-17 04:34N 47°40' W 122°13'0 0.0
2014-Dec-17 03:33N 47°40' W 122°13'0 0.0
2014-Dec-17 02:33N 47°40' W 122°13'0 0.0
2014-Dec-17 01:33N 47°40' W 122°13'0 0.0
2014-Dec-17 00:33N 47°40' W 122°13'0 0.0
2014-Dec-16 23:33N 47°40' W 122°13'0 0.0
2014-Dec-16 22:33N 47°40' W 122°13'0 0.0
2014-Dec-16 21:33N 47°40' W 122°13'0 0.0
2014-Dec-16 20:33N 47°40' W 122°13'0 0.0
2014-Dec-16 19:33N 47°40' W 122°13'0 0.0
2014-Dec-16 18:33N 47°40' W 122°13'0 0.0
2014-Dec-16 17:33N 47°40' W 122°13'0 0.0
2014-Dec-16 16:33N 47°40' W 122°13'0 0.0
2014-Dec-16 15:33N 47°40' W 122°13'0 0.0
2014-Dec-16 14:33N 47°40' W 122°13'0 0.0
2014-Dec-16 13:33N 47°40' W 122°13'0 0.0
2014-Dec-16 12:33N 47°40' W 122°13'0 0.0
2014-Dec-16 11:33N 47°40' W 122°13'0 0.0
2014-Dec-16 10:33N 47°40' W 122°13'0 0.0
2014-Dec-16 09:34N 47°40' W 122°13'0 0.0
2014-Dec-16 08:33N 47°40' W 122°13'0 0.0
2014-Dec-16 07:33N 47°40' W 122°13'0 0.0
2014-Dec-16 06:33N 47°40' W 122°13'0 0.0
2014-Dec-16 05:34N 47°40' W 122°13'0 0.0
2014-Dec-16 04:31N 47°40' W 122°13'0 0.0
2014-Dec-16 03:32N 47°40' W 122°13'0 0.0
2014-Dec-16 02:33N 47°40' W 122°13'0 0.0
2014-Dec-16 01:32N 47°40' W 122°13'0 0.0
2014-Dec-16 00:31N 47°40' W 122°13'0 0.0
2014-Dec-15 23:33N 47°40' W 122°13'0 0.0
2014-Dec-15 22:33N 47°40' W 122°13'0 0.0
2014-Dec-15 21:33N 47°40' W 122°13'0 0.0
2014-Dec-15 20:33N 47°40' W 122°13'0 0.0
2014-Dec-15 19:33N 47°40' W 122°13'0 0.0
2014-Dec-15 18:33N 47°40' W 122°13'0 0.0
2014-Dec-15 17:33N 47°40' W 122°13'0 0.0
2014-Dec-15 16:33N 47°40' W 122°13'0 0.0
2014-Dec-15 15:34N 47°40' W 122°13'0 0.0
2014-Dec-15 14:33N 47°40' W 122°13'0 0.0
2014-Dec-15 13:33N 47°40' W 122°13'0 0.0
2014-Dec-15 12:33N 47°40' W 122°13'0 0.0
2014-Dec-15 11:33N 47°40' W 122°13'0 0.0
2014-Dec-15 10:33N 47°40' W 122°13'0 0.0
2014-Dec-15 09:33N 47°40' W 122°13'0 0.0
2014-Dec-15 08:34N 47°40' W 122°13'0 0.0
2014-Dec-15 07:33N 47°40' W 122°13'0 0.0
2014-Dec-15 06:34N 47°40' W 122°13'0 0.0
2014-Dec-15 05:33N 47°40' W 122°13'0 0.0
2014-Dec-15 04:33N 47°40' W 122°13'0 0.0
2014-Dec-15 03:33N 47°40' W 122°13'0 0.0
2014-Dec-15 02:33N 47°40' W 122°13'0 0.0
2014-Dec-15 01:33N 47°40' W 122°13'0 0.0
2014-Dec-15 00:34N 47°40' W 122°13'0 0.0
2014-Dec-14 23:33N 47°40' W 122°13'0 0.0
2014-Dec-14 22:33N 47°40' W 122°13'0 0.0
2014-Dec-14 21:33N 47°40' W 122°13'0 0.0
2014-Dec-14 20:34N 47°40' W 122°13'0 0.0
2014-Dec-14 19:34N 47°40' W 122°13'0 0.0
2014-Dec-14 18:33N 47°40' W 122°13'0 0.0
2014-Dec-14 17:34N 47°40' W 122°13'0 0.0
2014-Dec-14 16:33N 47°40' W 122°13'0 0.0
2014-Dec-14 15:33N 47°40' W 122°13'0 0.0
2014-Dec-14 14:33N 47°40' W 122°13'0 0.0
2014-Dec-14 13:33N 47°40' W 122°13'0 0.0
2014-Dec-14 12:34N 47°40' W 122°13'0 0.0
2014-Dec-14 11:33N 47°40' W 122°13'0 0.0
2014-Dec-14 10:33N 47°40' W 122°13'0 0.0
2014-Dec-14 09:33N 47°40' W 122°13'4 3.4
2014-Dec-14 08:31N 47°39' W 122°17'1 0.3
2014-Dec-14 06:25N 47°39' W 122°18'4 4.6
2014-Dec-14 05:33N 47°37' W 122°13'5 4.8
2014-Dec-14 04:34N 47°38' W 122°20'1 0.7
2014-Dec-14 03:33N 47°38' W 122°20'0 0.0
2014-Dec-14 02:32N 47°38' W 122°20'2 1.8
2014-Dec-14 01:30N 47°39' W 122°18'4 4.4
2014-Dec-14 00:33N 47°36' W 122°13'5 4.4
2014-Dec-13 23:30N 47°39' W 122°19'1 1.5
2014-Dec-13 22:29N 47°38' W 122°20'0 0.0
2014-Dec-13 21:33N 47°38' W 122°20'4 4.3
2014-Dec-13 20:31N 47°40' W 122°14'1 1.5
2014-Dec-13 19:33N 47°40' W 122°13'0 0.0
2014-Dec-13 18:33N 47°40' W 122°13'0 0.0
2014-Dec-13 17:33N 47°40' W 122°13'0 0.0
2014-Dec-13 16:33N 47°40' W 122°13'0 0.0
2014-Dec-13 15:33N 47°40' W 122°13'0 0.0
2014-Dec-13 14:34N 47°40' W 122°13'0 0.0
2014-Dec-13 13:33N 47°40' W 122°13'0 0.0
2014-Dec-13 12:34N 47°40' W 122°13'0 0.0
2014-Dec-13 11:33N 47°40' W 122°13'0 0.0
2014-Dec-13 10:33N 47°40' W 122°13'0 0.0
2014-Dec-13 09:33N 47°40' W 122°13'0 0.0
2014-Dec-13 08:33N 47°40' W 122°13'4 3.9
2014-Dec-13 07:33N 47°39' W 122°18'2 1.9
2014-Dec-13 06:32N 47°38' W 122°20'2 1.6
2014-Dec-13 05:33N 47°39' W 122°21'4 3.8
2014-Dec-13 04:33N 47°37' W 122°17'3 2.5
2014-Dec-13 03:33N 47°38' W 122°20'1 0.5
2014-Dec-13 02:25N 47°38' W 122°20'0 0.0
2014-Dec-13 01:31N 47°38' W 122°20'6 4.0
2014-Dec-13 00:05N 47°40' W 122°13'4 7.6
2014-Dec-12 23:33N 47°39' W 122°18'2 1.7
2014-Dec-12 22:33N 47°38' W 122°20'5 4.6
2014-Dec-12 21:33N 47°39' W 122°14'2 1.5
2014-Dec-12 20:33N 47°40' W 122°13'0 0.0
2014-Dec-12 19:23N 47°40' W 122°13'0 0.0
2014-Dec-12 18:31N 47°40' W 122°13'0 0.0
2014-Dec-12 17:09N 47°40' W 122°13'0 0.0
2014-Dec-12 16:25N 47°40' W 122°13'0 0.0
2014-Dec-12 13:22N 47°40' W 122°13'0 0.0
2014-Dec-12 12:30N 47°40' W 122°13'0 0.0
2014-Dec-12 11:29N 47°40' W 122°13'0 0.0
2014-Dec-12 10:33N 47°40' W 122°13'0 0.0
2014-Dec-12 09:33N 47°40' W 122°13'0 0.0
2014-Dec-12 08:32N 47°40' W 122°13'0 0.0
2014-Dec-12 07:34N 47°40' W 122°13'0 0.0
2014-Dec-12 06:33N 47°40' W 122°13'0 0.0
2014-Dec-12 05:33N 47°40' W 122°13'0 0.0
2014-Dec-12 04:33N 47°40' W 122°13'0 0.0
2014-Dec-12 03:33N 47°40' W 122°13'0 0.0
2014-Dec-12 02:33N 47°40' W 122°13'0 0.0
2014-Dec-12 01:33N 47°40' W 122°13'0 0.0
2014-Dec-12 00:34N 47°40' W 122°13'0 0.0
2014-Dec-11 23:34N 47°40' W 122°13'0 0.0
2014-Dec-11 22:34N 47°40' W 122°13'0 0.0
2014-Dec-11 21:33N 47°40' W 122°13'0 0.0
2014-Dec-11 20:33N 47°40' W 122°13'0 0.0
2014-Dec-11 19:33N 47°40' W 122°13'0 0.0
2014-Dec-11 18:33N 47°40' W 122°13'0 0.0
2014-Dec-11 17:33N 47°40' W 122°13'0 0.0
2014-Dec-11 16:34N 47°40' W 122°13'0 0.0
2014-Dec-11 15:34N 47°40' W 122°13'0 0.0
2014-Dec-11 14:33N 47°40' W 122°13'0 0.0
2014-Dec-11 13:33N 47°40' W 122°13'0 0.0
2014-Dec-11 12:33N 47°40' W 122°13'0 0.0
2014-Dec-11 11:33N 47°40' W 122°13'0 0.0
2014-Dec-11 10:33N 47°40' W 122°13'0 0.0
2014-Dec-11 09:33N 47°40' W 122°13'0 0.0
2014-Dec-11 08:34N 47°40' W 122°13'0 0.0
2014-Dec-11 07:33N 47°40' W 122°13'0 0.0
2014-Dec-11 06:34N 47°40' W 122°13'0 0.0
2014-Dec-11 05:33N 47°40' W 122°13'0 0.0
2014-Dec-11 04:33N 47°40' W 122°13'0 0.0
2014-Dec-11 03:34N 47°40' W 122°13'0 0.0
2014-Dec-11 02:33N 47°40' W 122°13'0 0.0
2014-Dec-11 01:34N 47°40' W 122°13'0 0.0
2014-Dec-11 00:33N 47°40' W 122°13'0 0.0
2014-Dec-10 23:34N 47°40' W 122°13'0 0.0
2014-Dec-10 22:33N 47°40' W 122°13'0 0.0
2014-Dec-10 21:34N 47°40' W 122°13'0 0.0
2014-Dec-10 20:34N 47°40' W 122°13'0 0.0
2014-Dec-10 19:34N 47°40' W 122°13'0 0.0
2014-Dec-10 18:33N 47°40' W 122°13'0 0.0
2014-Dec-10 17:34N 47°40' W 122°13'0 0.0
2014-Dec-10 16:33N 47°40' W 122°13'0 0.0
2014-Dec-10 15:33N 47°40' W 122°13'0 0.0
2014-Dec-10 14:34N 47°40' W 122°13'0 0.0
2014-Dec-10 13:33N 47°40' W 122°13'0 0.0
2014-Dec-10 12:33N 47°40' W 122°13'0 0.0
2014-Dec-10 11:33N 47°40' W 122°13'0 0.0
2014-Dec-10 10:33N 47°40' W 122°13'0 0.0
2014-Dec-10 09:33N 47°40' W 122°13'0 0.0
2014-Dec-10 08:33N 47°40' W 122°13'0 0.0
2014-Dec-10 07:33N 47°40' W 122°13'0 0.0
2014-Dec-10 06:34N 47°40' W 122°13'0 0.0
2014-Dec-10 05:33N 47°40' W 122°13'0 0.0
2014-Dec-10 04:33N 47°40' W 122°13'0 0.0
2014-Dec-10 03:33N 47°40' W 122°13'0 0.0
2014-Dec-10 02:33N 47°40' W 122°13'0 0.0
2014-Dec-10 01:33N 47°40' W 122°13'0 0.0
2014-Dec-10 00:33N 47°40' W 122°13'0 0.0
2014-Dec-09 23:33N 47°40' W 122°13'0 0.0
2014-Dec-09 22:34N 47°40' W 122°13'0 0.0
2014-Dec-09 21:33N 47°40' W 122°13'0 0.0
2014-Dec-09 20:33N 47°40' W 122°13'0 0.0
2014-Dec-09 19:32N 47°40' W 122°13'0 0.0
2014-Dec-09 18:33N 47°40' W 122°13'0 0.0
2014-Dec-09 17:34N 47°40' W 122°13'0 0.0
2014-Dec-09 17:31N 47°40' W 122°13'0 0.0
2014-Dec-09 16:33N 47°40' W 122°13'0 0.0
2014-Dec-09 15:33N 47°40' W 122°13'0 0.0
2014-Dec-09 14:34N 47°40' W 122°13'0 0.0
2014-Dec-09 13:33N 47°40' W 122°13'0 0.0
2014-Dec-09 12:34N 47°40' W 122°13'0 0.0
2014-Dec-09 11:33N 47°40' W 122°13'0 0.0
2014-Dec-09 10:33N 47°40' W 122°13'0 0.0
2014-Dec-09 09:33N 47°40' W 122°13'0 0.0
2014-Dec-09 08:33N 47°40' W 122°13'0 0.0
2014-Dec-09 07:34N 47°40' W 122°13'0 0.0
2014-Dec-09 06:34N 47°40' W 122°13'0 0.0
2014-Dec-09 05:33N 47°40' W 122°13'0 0.0
2014-Dec-09 04:33N 47°40' W 122°13'0 0.0
2014-Dec-09 04:24N 47°40' W 122°13'0 0.0
2014-Dec-09 03:34N 47°40' W 122°13'  

Dump ship's entire track history